Terminal Aerodrome Forecast
Issued by NWS

Home | Current Version | Previous Version | Text Only | Print | Product List | Glossary On
Versions: 1 2 3 4 5 6 7 8 9 10 11 12 13 14 15 16 17 18 19 20 21 22 23 24 25
000
FTUS41 KPHI 211127
TAFPNE
TAF
KPNE 211127Z 2112/2212 22005KT 1SM -DZ BR OVC012
     FM211600 23010G18KT P6SM BKN025
     FM211800 23012G21KT P6SM BKN070
     FM220000 28006KT P6SM BKN060 PROB30 2200/2202 5SM -SHRA BKN025
     FM220400 34009G16KT P6SM OVC040
     FM220800 01010KT P6SM OVC025=

USA.gov is the U.S. government's official web portal to all federal, state and local government web resources and services.